Time;durP1;ratioP1;P1;durP2;ratioP2;P2;SDS_P1;SDS_P2;PMS_P1;PMS_P2;Temp;Humidity;BMP_temperature;BMP_pressure;BME280_temperature;BME280_humidity;BME280_pressure;Samples;Min_cycle;Max_cycle;Signal;HPM_P1;HPM_P2
2023/10/02 00:01:41;;;;;;;24.80;12.70;;;;;;;12.60;nan;101781.22;10361698;28;20050;-78
2023/10/02 00:06:42;;;;;;;25.17;12.47;;;;;;;12.62;nan;101779.56;10364987;28;20038;-78
2023/10/02 00:11:44;;;;;;;26.00;12.98;;;;;;;12.61;nan;101780.38;10357630;28;20132;-78
2023/10/02 00:16:59;;;;;;;24.13;13.88;;;;;;;12.55;nan;101782.69;10370149;28;20045;-78
2023/10/02 00:22:05;;;;;;;22.83;12.85;;;;;;;12.56;nan;101777.50;10364054;28;20042;-77
2023/10/02 00:27:06;;;;;;;25.52;12.88;;;;;;;12.52;nan;101780.78;10346392;28;20120;-79
2023/10/02 00:32:11;;;;;;;23.27;13.73;;;;;;;12.49;nan;101778.00;10359732;28;20394;-79
2023/10/02 00:37:15;;;;;;;29.83;11.90;;;;;;;12.39;nan;101780.94;10361306;28;20636;-78
2023/10/02 00:42:16;;;;;;;34.67;13.38;;;;;;;12.26;nan;101775.00;10360432;28;20038;-77
2023/10/02 00:47:35;;;;;;;21.50;11.48;;;;;;;12.09;nan;101781.94;10345262;28;20129;-78
2023/10/02 00:52:37;;;;;;;22.42;12.48;;;;;;;11.80;nan;101772.38;10358336;28;20128;-78
2023/10/02 00:57:38;;;;;;;19.40;11.00;;;;;;;11.80;nan;101767.13;10352918;28;20041;-78
2023/10/02 01:02:40;;;;;;;18.90;9.10;;;;;;;11.83;nan;101759.44;10362237;28;20480;-78
2023/10/02 01:07:41;;;;;;;22.58;12.30;;;;;;;11.92;nan;101759.06;10360301;28;20393;-78
2023/10/02 01:12:48;;;;;;;23.33;12.67;;;;;;;11.98;nan;101755.06;10360757;28;20033;-78
2023/10/02 01:17:50;;;;;;;28.73;17.67;;;;;;;12.02;nan;101764.06;10359563;28;20285;-78
2023/10/02 01:22:55;;;;;;;31.77;15.50;;;;;;;11.85;nan;101763.06;10344566;28;20033;-78
2023/10/02 01:27:56;;;;;;;23.45;12.05;;;;;;;11.66;nan;101763.75;10345764;28;20053;-78
2023/10/02 01:33:15;;;;;;;29.02;13.98;;;;;;;11.54;nan;101767.47;10362115;28;20065;-78
2023/10/02 01:38:26;;;;;;;16.60;9.82;;;;;;;11.40;nan;101761.41;10343403;28;20057;-77
2023/10/02 01:43:27;;;;;;;22.40;10.30;;;;;;;11.36;nan;101759.41;10353871;28;20034;-77
2023/10/02 01:48:36;;;;;;;19.83;10.05;;;;;;;11.39;nan;101762.22;10352834;28;20120;-77
2023/10/02 01:53:37;;;;;;;25.05;12.32;;;;;;;11.58;nan;101751.09;10314320;28;20180;-77
2023/10/02 01:58:48;;;;;;;29.73;16.33;;;;;;;11.72;nan;101753.59;10312520;28;20045;-77
2023/10/02 02:03:50;;;;;;;32.72;15.75;;;;;;;11.80;nan;101744.44;10315559;28;20046;-77
2023/10/02 02:08:58;;;;;;;32.97;18.65;;;;;;;11.83;nan;101741.09;10308287;28;20501;-77
2023/10/02 02:13:59;;;;;;;37.33;17.38;;;;;;;11.78;nan;101740.84;10325803;28;20048;-77
2023/10/02 02:19:12;;;;;;;36.20;17.10;;;;;;;11.76;nan;101742.47;10323240;28;20042;-77
2023/10/02 02:24:12;;;;;;;35.53;18.52;;;;;;;11.82;nan;101742.81;10324627;28;20050;-77
2023/10/02 02:29:26;;;;;;;34.70;17.08;;;;;;;11.82;nan;101739.28;10310235;28;20042;-77
2023/10/02 02:34:26;;;;;;;29.83;16.00;;;;;;;11.74;nan;101736.25;10326544;28;20045;-77
2023/10/02 02:39:27;;;;;;;35.45;15.98;;;;;;;11.74;nan;101728.38;10328167;28;20048;-77
2023/10/02 02:44:39;;;;;;;36.10;17.13;;;;;;;11.69;nan;101722.84;10311443;28;20057;-77
2023/10/02 02:49:51;;;;;;;32.67;17.42;;;;;;;11.70;nan;101722.03;10315919;28;20136;-78
2023/10/02 02:54:59;;;;;;;32.87;17.33;;;;;;;11.68;nan;101728.91;10349760;28;20046;-78
2023/10/02 03:05:22;;;;;;;30.02;17.85;;;;;;;11.54;nan;101709.78;10332515;28;20049;-78
2023/10/02 03:10:26;;;;;;;29.35;15.68;;;;;;;11.41;nan;101713.41;10323187;28;20060;-78
2023/10/02 03:20:49;;;;;;;26.25;14.77;;;;;;;11.19;nan;101699.88;10318527;28;20038;-78
2023/10/02 03:25:55;;;;;;;30.05;13.13;;;;;;;11.18;nan;101695.44;10331902;28;20066;-78
2023/10/02 03:30:55;;;;;;;21.95;9.75;;;;;;;11.25;nan;101693.28;10317332;28;20068;-79
2023/10/02 03:35:58;;;;;;;30.20;16.85;;;;;;;11.29;nan;101690.03;10298445;28;20061;-78
2023/10/02 03:40:59;;;;;;;28.92;13.68;;;;;;;11.30;nan;101696.16;10321966;28;20038;-77
2023/10/02 03:46:06;;;;;;;36.28;15.52;;;;;;;11.34;nan;101700.75;10340121;28;20042;-77
2023/10/02 03:51:07;;;;;;;39.10;18.33;;;;;;;11.37;nan;101682.59;10330422;28;20054;-77
2023/10/02 04:01:28;;;;;;;36.67;17.20;;;;;;;11.32;nan;101689.28;10319148;28;20501;-79
2023/10/02 04:06:35;;;;;;;33.83;17.15;;;;;;;11.28;nan;101682.06;10328643;28;20694;-77
2023/10/02 04:11:38;;;;;;;27.58;13.63;;;;;;;11.22;nan;101677.38;10334145;28;20085;-77
2023/10/02 04:16:38;;;;;;;32.03;17.27;;;;;;;11.17;nan;101668.34;10317584;28;20136;-77
2023/10/02 04:21:40;;;;;;;23.08;12.02;;;;;;;11.17;nan;101676.22;10331280;28;20206;-77
2023/10/02 04:26:41;;;;;;;26.63;14.52;;;;;;;11.10;nan;101676.66;10312777;28;20406;-77
2023/10/02 04:31:46;;;;;;;25.67;14.15;;;;;;;11.05;nan;101685.97;10326023;28;20965;-76
2023/10/02 04:36:47;;;;;;;36.15;17.98;;;;;;;10.97;nan;101680.25;10311257;28;20623;-77
2023/10/02 04:42:09;;;;;;;26.83;13.52;;;;;;;10.88;nan;101680.66;10319895;28;20042;-78
2023/10/02 04:47:09;;;;;;;38.50;13.27;;;;;;;10.80;nan;101677.56;10312625;28;20133;-77
2023/10/02 04:52:11;;;;;;;27.27;12.63;;;;;;;10.76;nan;101682.53;10318641;28;20553;-77
2023/10/02 04:57:14;;;;;;;;;;;;;;;10.67;nan;101680.25;10327688;28;20045;-76
2023/10/02 05:02:21;;;;;;;23.75;12.65;;;;;;;10.62;nan;101676.44;10330726;28;19921;-77
2023/10/02 05:07:21;;;;;;;18.80;11.55;;;;;;;10.49;nan;101682.66;10319313;28;20073;-77
2023/10/02 05:12:22;;;;;;;18.52;9.65;;;;;;;10.45;nan;101691.13;10315074;28;20050;-77
2023/10/02 05:22:45;;;;;;;33.30;12.68;;;;;;;10.46;nan;101677.25;10345351;28;20042;-81
2023/10/02 05:27:47;;;;;;;20.20;10.52;;;;;;;10.49;nan;101686.16;10360391;28;20048;-77
2023/10/02 05:32:47;;;;;;;20.58;9.48;;;;;;;10.55;nan;101678.69;10358392;28;20069;-77
2023/10/02 05:37:48;;;;;;;20.23;10.02;;;;;;;10.58;nan;101678.88;10359556;28;20125;-77
2023/10/02 05:47:59;;;;;;;32.55;14.65;;;;;;;10.76;nan;101683.41;10357789;28;20100;-76
2023/10/02 05:53:00;;;;;;;35.75;16.80;;;;;;;10.77;nan;101682.59;10355666;28;20129;-78
2023/10/02 05:58:01;;;;;;;39.35;16.67;;;;;;;10.84;nan;101694.38;10369594;28;20083;-79
2023/10/02 06:03:02;;;;;;;42.93;19.17;;;;;;;10.95;nan;101700.22;10355899;28;20042;-79
2023/10/02 06:08:06;;;;;;;25.23;12.48;;;;;;;11.04;nan;101697.28;10359907;28;20490;-79
2023/10/02 06:13:08;;;;;;;34.13;14.13;;;;;;;11.05;nan;101683.34;10356996;28;20132;-77
2023/10/02 06:18:09;;;;;;;26.48;13.27;;;;;;;11.22;nan;101682.63;10358057;28;20037;-79
2023/10/02 06:23:22;;;;;;;31.30;15.23;;;;;;;11.36;nan;101696.50;10334889;28;20434;-78
2023/10/02 06:28:25;;;;;;;35.38;15.00;;;;;;;11.56;nan;101683.63;10354774;28;20064;-79
2023/10/02 06:33:26;;;;;;;29.17;15.82;;;;;;;11.83;nan;101681.69;10356147;28;20054;-81
2023/10/02 06:38:29;;;;;;;25.63;13.55;;;;;;;12.24;nan;101691.78;10333410;28;20658;-80
2023/10/02 06:43:30;;;;;;;25.15;14.07;;;;;;;12.46;nan;101696.44;10351016;28;20539;-77
2023/10/02 06:48:32;;;;;;;26.40;11.73;;;;;;;12.78;nan;101702.47;10340528;28;20084;-78
2023/10/02 06:53:32;;;;;;;29.48;11.60;;;;;;;13.44;nan;101697.06;10346107;28;20046;-77
2023/10/02 06:58:46;;;;;;;21.33;10.60;;;;;;;13.87;nan;101697.31;10337893;28;20050;-77
2023/10/02 07:03:51;;;;;;;21.27;13.55;;;;;;;13.92;nan;101694.09;10342065;28;20121;-77
2023/10/02 07:09:10;;;;;;;24.20;12.65;;;;;;;13.95;nan;101699.50;10359595;28;20038;-78
2023/10/02 07:14:12;;;;;;;18.08;10.32;;;;;;;14.93;nan;101700.34;10335980;28;20037;-78
2023/10/02 07:19:13;;;;;;;17.83;9.57;;;;;;;15.91;nan;101677.94;10348758;28;20103;-78
2023/10/02 07:24:27;;;;;;;17.80;9.18;;;;;;;16.86;nan;101646.19;10329077;28;20041;-78
2023/10/02 07:29:37;;;;;;;21.42;11.07;;;;;;;16.84;nan;101609.97;10357118;28;20153;-78
2023/10/02 07:34:38;;;;;;;16.25;10.52;;;;;;;16.70;nan;101575.16;10357770;28;20513;-77
2023/10/02 07:39:39;;;;;;;20.77;10.07;;;;;;;16.44;nan;101557.53;10358690;28;20045;-78
2023/10/02 07:44:39;;;;;;;23.45;11.02;;;;;;;16.58;nan;101576.53;10361287;28;20052;-79
2023/10/02 07:49:40;;;;;;;17.27;9.60;;;;;;;16.81;nan;101588.72;10335969;28;20049;-78
2023/10/02 07:54:48;;;;;;;19.73;10.80;;;;;;;16.87;nan;101595.13;10340234;28;20128;-78
2023/10/02 07:59:49;;;;;;;19.27;11.25;;;;;;;17.10;nan;101595.00;10362617;28;20041;-79
2023/10/02 08:04:51;;;;;;;18.08;10.43;;;;;;;17.37;nan;101590.53;10362872;28;20096;-78
2023/10/02 08:09:52;;;;;;;;;;;;;;;17.59;nan;101586.81;10357891;28;20096;-79
2023/10/02 08:14:54;;;;;;;19.08;11.77;;;;;;;17.81;nan;101590.97;10355457;28;19977;-79
2023/10/02 08:19:56;;;;;;;22.00;11.13;;;;;;;18.13;nan;101603.41;10348035;28;20041;-80
2023/10/02 08:24:57;;;;;;;21.85;12.20;;;;;;;18.39;nan;101606.75;10384971;28;20478;-79
2023/10/02 08:30:00;;;;;;;21.45;10.48;;;;;;;18.59;nan;101609.03;10360726;28;20077;-78
2023/10/02 08:35:13;;;;;;;24.10;11.93;;;;;;;18.77;nan;101613.94;10362692;28;20041;-79
2023/10/02 08:40:15;;;;;;;32.20;12.93;;;;;;;19.25;nan;101611.59;10360738;28;20054;-78
2023/10/02 08:45:20;;;;;;;27.80;13.53;;;;;;;19.64;nan;101614.25;10360199;28;20041;-79
2023/10/02 08:50:20;;;;;;;24.23;12.35;;;;;;;20.14;nan;101620.63;10343269;28;20281;-78
2023/10/02 09:06:25;;;;;;;24.20;13.45;;;;;;;21.11;nan;101617.97;10356964;28;20409;-81
2023/10/02 09:11:30;;;;;;;22.20;13.25;;;;;;;21.47;nan;101621.16;10359500;28;20034;-80
2023/10/02 09:16:30;;;;;;;28.88;13.30;;;;;;;21.65;nan;101597.47;10359114;28;20072;-81
2023/10/02 09:21:39;;;;;;;20.17;13.67;;;;;;;21.92;nan;101608.47;10356592;28;20176;-78
2023/10/02 09:26:43;;;;;;;24.38;14.57;;;;;;;22.18;nan;101621.22;10342610;28;20049;-80
2023/10/02 09:31:43;;;;;;;25.73;14.30;;;;;;;22.52;nan;101625.16;10341709;28;20042;-79
2023/10/02 09:36:54;;;;;;;27.53;14.53;;;;;;;22.83;nan;101644.13;10358152;28;20128;-79
2023/10/02 09:42:05;;;;;;;20.88;12.77;;;;;;;23.45;nan;101635.75;10358171;28;20441;-80
2023/10/02 09:47:11;;;;;;;;;;;;;;;24.70;nan;101645.16;10344220;28;20046;-79
2023/10/02 09:52:16;;;;;;;26.10;14.98;;;;;;;27.19;nan;101701.59;10374607;28;19922;-79
2023/10/02 09:57:19;;;;;;;23.85;14.25;;;;;;;29.37;nan;101749.13;10357386;28;20497;-80
2023/10/02 10:07:37;;;;;;;23.60;12.73;;;;;;;30.47;nan;101736.22;10359968;28;20481;-78
2023/10/02 10:12:50;;;;;;;26.40;15.50;;;;;;;30.01;nan;101739.91;10360392;28;20041;-80
2023/10/02 10:17:51;;;;;;;28.48;15.18;;;;;;;29.69;nan;101727.91;10357753;28;20153;-80
2023/10/02 10:22:55;;;;;;;21.88;13.27;;;;;;;28.83;nan;101731.13;10358414;28;20375;-79
2023/10/02 10:27:58;;;;;;;21.73;13.30;;;;;;;28.28;nan;101734.56;10342184;28;20041;-79
2023/10/02 10:43:43;;;;;;;20.92;14.23;;;;;;;27.60;nan;101729.91;10357881;28;20397;-79
2023/10/02 10:48:48;;;;;;;25.05;13.85;;;;;;;26.83;nan;101717.97;10358540;28;20045;-79
2023/10/02 10:53:58;;;;;;;21.58;13.18;;;;;;;26.64;nan;101718.03;10356363;28;20585;-79
2023/10/02 10:59:13;;;;;;;29.25;14.90;;;;;;;26.14;nan;101711.09;10357453;28;20382;-79
2023/10/02 11:04:26;;;;;;;26.00;14.25;;;;;;;25.62;nan;101732.72;10357947;28;20838;-82
2023/10/02 11:09:26;;;;;;;21.15;12.10;;;;;;;25.26;nan;101704.09;10361714;28;20038;-79
2023/10/02 11:14:34;;;;;;;23.93;14.87;;;;;;;25.29;nan;101680.91;10364298;28;20085;-79
2023/10/02 11:19:44;;;;;;;23.10;12.52;;;;;;;25.57;nan;101672.84;10347603;28;20042;-78
2023/10/02 11:24:52;;;;;;;22.27;12.40;;;;;;;25.93;nan;101662.94;10363380;28;20093;-80
2023/10/02 11:30:02;;;;;;;21.52;13.48;;;;;;;26.11;nan;101685.22;10364775;28;20064;-80
2023/10/02 11:35:05;;;;;;;22.42;12.45;;;;;;;27.54;nan;101687.84;10364964;28;20797;-80
2023/10/02 11:40:06;;;;;;;21.25;14.77;;;;;;;27.98;nan;101685.56;10364803;28;20383;-80
2023/10/02 11:45:08;;;;;;;21.98;14.30;;;;;;;28.37;nan;101678.81;10340891;28;20439;-80
2023/10/02 11:50:08;;;;;;;18.83;12.45;;;;;;;28.63;nan;101691.88;10362340;28;20120;-80
2023/10/02 11:55:09;;;;;;;20.70;12.45;;;;;;;27.57;nan;101672.56;10364442;28;20049;-80
2023/10/02 12:00:12;;;;;;;20.80;12.57;;;;;;;26.72;nan;101660.72;10343861;28;20042;-79
2023/10/02 12:05:12;;;;;;;22.63;15.10;;;;;;;26.03;nan;101653.03;10362946;28;20456;-79
2023/10/02 12:10:15;;;;;;;22.83;15.30;;;;;;;26.64;nan;101628.59;10361244;28;20045;-79
2023/10/02 12:15:15;;;;;;;22.27;13.30;;;;;;;28.39;nan;101658.16;10361798;28;20545;-79
2023/10/02 12:20:22;;;;;;;18.27;12.37;;;;;;;27.78;nan;101634.69;10359552;28;20050;-79
2023/10/02 12:25:23;;;;;;;26.23;13.52;;;;;;;28.00;nan;101631.72;10360229;28;20045;-79
2023/10/02 12:30:24;;;;;;;25.50;13.45;;;;;;;27.68;nan;101616.88;10375988;28;20125;-79
2023/10/02 12:35:24;;;;;;;24.00;13.20;;;;;;;27.25;nan;101586.00;10361914;28;20029;-79
2023/10/02 12:40:31;;;;;;;20.80;12.77;;;;;;;28.75;nan;101614.50;10361369;28;20476;-80
2023/10/02 12:45:35;;;;;;;27.70;13.05;;;;;;;29.23;nan;101613.72;10360592;28;20038;-80
2023/10/02 12:50:39;;;;;;;27.17;15.73;;;;;;;30.21;nan;101611.75;10360072;28;20054;-79
2023/10/02 12:55:43;;;;;;;19.85;13.90;;;;;;;30.63;nan;101603.56;10345026;28;20030;-80
2023/10/02 13:00:43;;;;;;;23.80;14.25;;;;;;;30.20;nan;101604.56;10361082;28;20412;-80
2023/10/02 13:05:44;;;;;;;23.30;13.80;;;;;;;30.55;nan;101587.53;10360233;28;20061;-80
2023/10/02 13:10:45;;;;;;;20.92;14.23;;;;;;;30.41;nan;101585.16;10360779;28;20033;-80
2023/10/02 13:15:48;;;;;;;23.80;14.10;;;;;;;30.11;nan;101582.28;10361528;28;20486;-79
2023/10/02 13:20:53;;;;;;;23.65;14.48;;;;;;;28.75;nan;101576.81;10359169;28;20046;-79
2023/10/02 13:25:54;;;;;;;22.33;14.32;;;;;;;27.51;nan;101568.72;10360678;28;20395;-77
2023/10/02 13:30:54;;;;;;;25.45;17.10;;;;;;;26.70;nan;101550.69;10360543;28;20037;-77
2023/10/02 13:36:00;;;;;;;24.00;14.00;;;;;;;27.07;nan;101528.88;10358193;28;20116;-77
2023/10/02 13:41:09;;;;;;;23.52;13.57;;;;;;;27.73;nan;101517.38;10360273;28;20116;-77
2023/10/02 13:46:10;;;;;;;21.38;13.38;;;;;;;28.87;nan;101528.13;10358674;28;20046;-77
2023/10/02 13:51:12;;;;;;;24.63;14.40;;;;;;;29.51;nan;101541.28;10358655;28;20486;-77
2023/10/02 13:56:17;;;;;;;24.08;12.80;;;;;;;28.68;nan;101516.81;10358425;28;20119;-77
2023/10/02 14:01:22;;;;;;;22.88;13.02;;;;;;;28.37;nan;101509.25;10354147;28;20052;-78
2023/10/02 14:06:23;;;;;;;27.85;15.02;;;;;;;28.40;nan;101510.06;10353905;28;20061;-78
2023/10/02 14:11:25;;;;;;;21.25;13.18;;;;;;;29.13;nan;101502.50;10352593;28;20049;-79
2023/10/02 14:16:26;;;;;;;22.08;12.95;;;;;;;28.99;nan;101492.88;10332068;28;20046;-78
2023/10/02 14:21:26;;;;;;;31.40;19.67;;;;;;;28.32;nan;101477.03;10354640;28;20433;-78
2023/10/02 14:26:27;;;;;;;24.63;14.67;;;;;;;27.23;nan;101467.78;10358984;28;20137;-78
2023/10/02 14:31:31;;;;;;;26.88;14.82;;;;;;;26.37;nan;101440.06;10357302;28;20137;-78
2023/10/02 14:36:32;;;;;;;23.50;12.85;;;;;;;25.89;nan;101419.84;10338319;28;20062;-78
2023/10/02 14:41:33;;;;;;;34.55;15.23;;;;;;;25.82;nan;101374.31;10348911;28;20074;-78
2023/10/02 14:46:33;;;;;;;25.13;14.17;;;;;;;25.58;nan;101387.00;10366379;28;20126;-77
2023/10/02 14:51:34;;;;;;;22.70;13.47;;;;;;;26.05;nan;101384.88;10363062;28;20771;-78
2023/10/02 14:56:34;;;;;;;25.63;15.67;;;;;;;26.26;nan;101374.88;10359651;28;20044;-77
2023/10/02 15:01:35;;;;;;;22.90;14.43;;;;;;;26.85;nan;101385.88;10348751;28;20557;-77
2023/10/02 15:06:37;;;;;;;29.10;14.90;;;;;;;27.07;nan;101408.00;10364645;28;20041;-78
2023/10/02 15:11:38;;;;;;;23.52;13.38;;;;;;;27.39;nan;101374.44;10357090;28;20088;-78
2023/10/02 15:16:38;;;;;;;28.63;15.48;;;;;;;27.17;nan;101362.22;10363306;28;20494;-78
2023/10/02 15:21:40;;;;;;;24.37;15.80;;;;;;;25.55;nan;101333.44;10357589;28;20065;-78
2023/10/02 15:26:45;;;;;;;;;;;;;;;24.88;nan;101312.38;10359794;28;20038;-80
2023/10/02 15:31:46;;;;;;;28.00;13.10;;;;;;;24.34;nan;101300.94;10382125;28;19922;-78
2023/10/02 15:36:47;;;;;;;25.08;14.48;;;;;;;24.16;nan;101279.59;10359797;28;20489;-81
2023/10/02 15:41:47;;;;;;;22.37;12.67;;;;;;;23.68;nan;101277.84;10353261;28;20070;-79
2023/10/02 15:46:50;;;;;;;25.90;14.73;;;;;;;22.96;nan;101265.25;10364810;28;20081;-80
2023/10/02 15:51:51;;;;;;;25.45;14.98;;;;;;;22.59;nan;101258.03;10362396;28;20127;-78
2023/10/02 15:56:52;;;;;;;25.48;15.25;;;;;;;22.36;nan;101250.81;10361223;28;20130;-77
2023/10/02 16:01:52;;;;;;;33.00;16.83;;;;;;;21.92;nan;101248.78;10362201;28;20042;-77
2023/10/02 16:06:53;;;;;;;25.97;13.03;;;;;;;21.52;nan;101244.00;10361895;28;20405;-77
2023/10/02 16:11:54;;;;;;;24.37;13.07;;;;;;;21.15;nan;101246.31;10364491;28;20106;-77
2023/10/02 16:16:56;;;;;;;27.17;13.27;;;;;;;20.80;nan;101258.38;10360864;28;20073;-76
2023/10/02 16:21:56;;;;;;;22.65;13.10;;;;;;;20.50;nan;101276.59;10362670;28;20065;-79
2023/10/02 16:26:57;;;;;;;28.40;15.33;;;;;;;20.23;nan;101279.78;10347237;28;20572;-78
2023/10/02 16:31:59;;;;;;;31.50;16.05;;;;;;;19.94;nan;101270.47;10340042;28;20115;-79
2023/10/02 16:36:59;;;;;;;27.20;13.87;;;;;;;19.65;nan;101252.28;10340678;28;20091;-78
2023/10/02 16:42:01;;;;;;;31.60;16.37;;;;;;;19.47;nan;101259.94;10326660;28;20474;-78
2023/10/02 16:47:02;;;;;;;30.52;14.90;;;;;;;19.24;nan;101257.78;10352284;28;20449;-80
2023/10/02 16:52:03;;;;;;;25.02;15.35;;;;;;;19.08;nan;101246.88;10357263;28;20042;-79
2023/10/02 16:57:04;;;;;;;30.00;15.87;;;;;;;18.83;nan;101234.00;10360949;28;20405;-77
2023/10/02 17:02:04;;;;;;;29.40;14.40;;;;;;;18.54;nan;101240.53;10333174;28;20133;-77
2023/10/02 17:07:05;;;;;;;35.70;17.25;;;;;;;18.28;nan;101245.25;10344558;28;20390;-77
2023/10/02 17:12:05;;;;;;;33.13;14.45;;;;;;;18.15;nan;101255.56;10359505;28;20048;-76
2023/10/02 17:17:07;;;;;;;27.85;15.55;;;;;;;17.88;nan;101261.97;10357624;28;20065;-76
2023/10/02 17:22:08;;;;;;;28.33;15.27;;;;;;;17.61;nan;101257.81;10362253;28;20099;-76
2023/10/02 17:27:08;;;;;;;28.83;16.30;;;;;;;17.58;nan;101264.78;10356925;28;20112;-76
2023/10/02 17:32:09;;;;;;;35.47;18.67;;;;;;;17.46;nan;101260.06;10360396;28;20095;-76
2023/10/02 17:37:09;;;;;;;30.65;16.25;;;;;;;17.31;nan;101247.34;10358092;28;20065;-77
2023/10/02 17:42:10;;;;;;;31.52;17.20;;;;;;;17.16;nan;101251.38;10357706;28;20076;-77
2023/10/02 17:47:10;;;;;;;29.83;16.50;;;;;;;17.12;nan;101253.88;10358501;28;20454;-77
2023/10/02 17:52:11;;;;;;;32.67;18.60;;;;;;;16.98;nan;101251.75;10356966;28;20073;-77
2023/10/02 17:57:13;;;;;;;30.10;15.75;;;;;;;16.81;nan;101240.69;10359143;28;20385;-79
2023/10/02 18:02:14;;;;;;;29.90;16.85;;;;;;;16.66;nan;101240.28;10359842;28;20585;-76
2023/10/02 18:07:15;;;;;;;29.25;16.20;;;;;;;16.52;nan;101224.91;10358755;28;20056;-76
2023/10/02 18:12:16;;;;;;;31.70;17.00;;;;;;;16.46;nan;101226.47;10356636;28;20042;-75
2023/10/02 18:17:17;;;;;;;28.53;17.63;;;;;;;16.45;nan;101233.50;10355440;28;20128;-75
2023/10/02 18:22:18;;;;;;;32.45;17.20;;;;;;;16.36;nan;101234.13;10356938;28;20471;-76
2023/10/02 18:27:18;;;;;;;28.42;15.88;;;;;;;16.20;nan;101232.78;10356885;28;20042;-75
2023/10/02 18:32:19;;;;;;;32.83;15.68;;;;;;;16.13;nan;101233.44;10357416;28;20080;-75
2023/10/02 18:37:19;;;;;;;34.47;16.83;;;;;;;16.09;nan;101235.06;10353989;28;20153;-75
2023/10/02 18:42:20;;;;;;;29.65;17.83;;;;;;;15.96;nan;101232.91;10346214;28;20173;-76
2023/10/02 18:47:20;;;;;;;35.13;18.70;;;;;;;15.85;nan;101237.81;10357259;28;20126;-76
2023/10/02 18:52:21;;;;;;;35.58;18.15;;;;;;;15.82;nan;101216.63;10356201;28;20123;-76
2023/10/02 18:57:21;;;;;;;33.95;19.55;;;;;;;15.81;nan;101215.69;10356965;28;20038;-77
2023/10/02 19:02:23;;;;;;;30.23;18.35;;;;;;;15.80;nan;101207.75;10355424;28;20034;-76
2023/10/02 19:07:24;;;;;;;40.38;18.15;;;;;;;15.76;nan;101217.31;10355386;28;20037;-76
2023/10/02 19:12:25;;;;;;;32.08;16.05;;;;;;;15.69;nan;101215.31;10358690;28;20164;-76
2023/10/02 19:17:26;;;;;;;33.25;17.52;;;;;;;15.55;nan;101207.84;10355760;28;20516;-75
2023/10/02 19:22:27;;;;;;;40.70;18.60;;;;;;;15.48;nan;101199.69;10356274;28;20088;-76
2023/10/02 19:27:27;;;;;;;37.38;16.92;;;;;;;15.43;nan;101196.91;10364206;28;20447;-77
2023/10/02 19:32:28;;;;;;;33.88;17.15;;;;;;;15.37;nan;101188.78;10361703;28;20065;-75
2023/10/02 19:37:29;;;;;;;45.45;18.67;;;;;;;15.32;nan;101179.81;10364224;28;20451;-77
2023/10/02 19:42:29;;;;;;;34.38;17.70;;;;;;;15.26;nan;101173.50;10364535;28;20133;-76
2023/10/02 19:47:30;;;;;;;29.67;15.00;;;;;;;15.21;nan;101168.94;10379402;28;20069;-77
2023/10/02 19:52:30;;;;;;;26.67;16.42;;;;;;;15.14;nan;101165.19;10378226;28;20034;-77
2023/10/02 19:57:32;;;;;;;31.67;15.20;;;;;;;15.07;nan;101160.53;10356857;28;20046;-76
2023/10/02 20:02:33;;;;;;;34.35;17.63;;;;;;;15.00;nan;101140.09;10364445;28;20127;-77
2023/10/02 20:07:34;;;;;;;32.35;16.33;;;;;;;14.93;nan;101137.25;10356599;28;20097;-77
2023/10/02 20:12:35;;;;;;;34.45;17.02;;;;;;;14.90;nan;101128.34;10359526;28;20621;-76
2023/10/02 20:17:36;;;;;;;32.03;17.53;;;;;;;14.82;nan;101123.72;10360441;28;20046;-77
2023/10/02 20:22:37;;;;;;;28.42;16.80;;;;;;;14.83;nan;101100.88;10359121;28;20046;-76
2023/10/02 20:27:38;;;;;;;28.90;17.25;;;;;;;14.84;nan;101105.31;10359691;28;20065;-77
2023/10/02 20:32:39;;;;;;;34.55;15.45;;;;;;;14.90;nan;101099.38;10356107;28;20038;-76
2023/10/02 20:37:41;;;;;;;25.23;15.18;;;;;;;14.88;nan;101099.31;10342154;28;20061;-77
2023/10/02 20:42:42;;;;;;;29.55;15.60;;;;;;;14.84;nan;101081.59;10361580;28;20038;-76
2023/10/02 20:47:42;;;;;;;28.52;16.02;;;;;;;14.80;nan;101083.25;10361339;28;20133;-76
2023/10/02 20:52:43;;;;;;;32.72;17.13;;;;;;;14.74;nan;101090.03;10361503;28;20129;-76
2023/10/02 20:57:43;;;;;;;33.63;15.07;;;;;;;14.62;nan;101095.75;10359791;28;20089;-77
2023/10/02 21:02:44;;;;;;;33.70;16.33;;;;;;;14.58;nan;101078.94;10362341;28;20123;-77
2023/10/02 21:07:44;;;;;;;32.22;15.18;;;;;;;14.49;nan;101076.91;10355804;28;20038;-76
2023/10/02 21:12:46;;;;;;;31.13;15.13;;;;;;;14.44;nan;101069.66;10342344;28;20038;-76
2023/10/02 21:17:47;;;;;;;26.20;13.27;;;;;;;14.44;nan;101073.22;10361255;28;20034;-76
2023/10/02 21:22:47;;;;;;;31.42;16.00;;;;;;;14.39;nan;101059.88;10358816;28;20116;-76
2023/10/02 21:27:48;;;;;;;31.90;16.05;;;;;;;14.33;nan;101045.59;10342223;28;20050;-76
2023/10/02 21:32:49;;;;;;;34.65;17.00;;;;;;;14.23;nan;101044.38;10342589;28;20091;-76
2023/10/02 21:37:49;;;;;;;38.67;16.15;;;;;;;14.18;nan;101036.31;10357603;28;20041;-76
2023/10/02 21:42:50;;;;;;;30.02;16.20;;;;;;;14.08;nan;101036.84;10361169;28;20129;-76
2023/10/02 21:47:50;;;;;;;29.52;17.13;;;;;;;14.06;nan;101028.88;10359338;28;20497;-76
2023/10/02 21:52:51;;;;;;;41.13;18.55;;;;;;;13.99;nan;101018.09;10357914;28;20124;-76
2023/10/02 21:57:51;;;;;;;29.27;15.25;;;;;;;13.94;nan;101000.41;10356869;28;20113;-76
2023/10/02 22:02:52;;;;;;;37.28;17.95;;;;;;;13.85;nan;100999.16;10358176;28;20093;-78
2023/10/02 22:07:55;;;;;;;34.65;16.88;;;;;;;13.82;nan;100999.03;10359703;28;20078;-76
2023/10/02 22:12:55;;;;;;;31.85;17.15;;;;;;;13.68;nan;100988.91;10358809;28;20395;-76
2023/10/02 22:17:56;;;;;;;40.10;20.80;;;;;;;13.60;nan;100979.84;10358243;28;20054;-76
2023/10/02 22:22:58;;;;;;;35.70;20.02;;;;;;;13.53;nan;100964.69;10357658;28;20132;-77
2023/10/02 22:28:01;;;;;;;45.05;23.40;;;;;;;13.50;nan;100960.22;10348257;28;20042;-76
2023/10/02 22:33:02;;;;;;;33.97;20.33;;;;;;;13.45;nan;100957.41;10353705;28;20041;-76
2023/10/02 22:38:03;;;;;;;38.60;19.42;;;;;;;13.44;nan;100946.84;10357164;28;20570;-76
2023/10/02 22:43:04;;;;;;;34.30;15.77;;;;;;;13.46;nan;100934.66;10358788;28;20495;-76
2023/10/02 22:48:05;;;;;;;33.35;16.80;;;;;;;13.53;nan;100923.50;10356396;28;20113;-76
2023/10/02 22:53:07;;;;;;;34.95;18.80;;;;;;;13.55;nan;100926.19;10357709;28;20097;-75
2023/10/02 22:58:07;;;;;;;38.75;18.58;;;;;;;13.52;nan;100919.09;10354221;28;20041;-75
2023/10/02 23:03:08;;;;;;;35.45;20.73;;;;;;;13.49;nan;100903.22;10360030;28;20081;-76
2023/10/02 23:08:10;;;;;;;36.47;17.73;;;;;;;13.56;nan;100896.41;10366428;28;20597;-76
2023/10/02 23:13:11;;;;;;;38.65;20.48;;;;;;;13.54;nan;100893.75;10362687;28;20042;-76
2023/10/02 23:18:12;;;;;;;51.85;21.98;;;;;;;13.54;nan;100877.06;10325546;28;20065;-76
2023/10/02 23:23:13;;;;;;;38.72;20.70;;;;;;;13.55;nan;100873.59;10325185;28;20084;-76
2023/10/02 23:28:16;;;;;;;32.60;16.92;;;;;;;13.58;nan;100858.84;10307475;28;20038;-76
2023/10/02 23:33:17;;;;;;;37.53;16.80;;;;;;;13.63;nan;100846.75;10323425;28;20044;-76
2023/10/02 23:38:17;;;;;;;34.85;17.85;;;;;;;13.69;nan;100839.91;10348505;28;20061;-76
2023/10/02 23:43:19;;;;;;;47.78;21.83;;;;;;;13.77;nan;100841.06;10365464;28;20034;-76
2023/10/02 23:48:20;;;;;;;43.25;20.73;;;;;;;13.84;nan;100839.53;10363722;28;20033;-76
2023/10/02 23:53:23;;;;;;;41.42;20.10;;;;;;;13.80;nan;100821.00;10362489;28;20062;-76
2023/10/02 23:58:25;;;;;;;40.33;18.95;;;;;;;13.74;nan;100819.91;10364610;28;20046;-75
